sensor_id;sensor_type;location;lat;lon;timestamp;temperature;humidity
2603;DHT22;1311;47.966;7.958;2023-02-01T00:00:16;5.20;99.90
2603;DHT22;1311;47.966;7.958;2023-02-01T00:02:44;5.20;99.90
2603;DHT22;1311;47.966;7.958;2023-02-01T00:05:11;5.30;99.90
2603;DHT22;1311;47.966;7.958;2023-02-01T00:07:38;5.30;99.90
2603;DHT22;1311;47.966;7.958;2023-02-01T00:10:06;5.30;99.90
2603;DHT22;1311;47.966;7.958;2023-02-01T00:12:33;5.30;99.90
2603;DHT22;1311;47.966;7.958;2023-02-01T00:15:00;5.30;99.90
2603;DHT22;1311;47.966;7.958;2023-02-01T00:17:27;5.30;99.90
2603;DHT22;1311;47.966;7.958;2023-02-01T00:19:55;5.30;99.90
2603;DHT22;1311;47.966;7.958;2023-02-01T00:22:22;5.30;99.90
2603;DHT22;1311;47.966;7.958;2023-02-01T00:24:49;5.30;99.90
2603;DHT22;1311;47.966;7.958;2023-02-01T00:27:15;5.30;99.90
2603;DHT22;1311;47.966;7.958;2023-02-01T00:29:45;5.30;99.90
2603;DHT22;1311;47.966;7.958;2023-02-01T00:32:12;5.30;99.90
2603;DHT22;1311;47.966;7.958;2023-02-01T00:34:39;5.30;99.90
2603;DHT22;1311;47.966;7.958;2023-02-01T00:37:07;5.30;99.90
2603;DHT22;1311;47.966;7.958;2023-02-01T00:39:34;5.30;99.90
2603;DHT22;1311;47.966;7.958;2023-02-01T00:42:01;5.30;99.90
2603;DHT22;1311;47.966;7.958;2023-02-01T00:44:29;5.30;99.90
2603;DHT22;1311;47.966;7.958;2023-02-01T00:46:59;5.30;99.90
2603;DHT22;1311;47.966;7.958;2023-02-01T00:49:25;5.30;99.90
2603;DHT22;1311;47.966;7.958;2023-02-01T00:51:52;5.30;99.90
2603;DHT22;1311;47.966;7.958;2023-02-01T00:54:20;5.30;99.90
2603;DHT22;1311;47.966;7.958;2023-02-01T00:56:47;5.30;99.90
2603;DHT22;1311;47.966;7.958;2023-02-01T00:59:14;5.30;99.90
2603;DHT22;1311;47.966;7.958;2023-02-01T01:01:41;5.30;99.90
2603;DHT22;1311;47.966;7.958;2023-02-01T01:04:08;5.30;99.90
2603;DHT22;1311;47.966;7.958;2023-02-01T01:06:35;5.30;99.90
2603;DHT22;1311;47.966;7.958;2023-02-01T01:09:04;5.30;99.90
2603;DHT22;1311;47.966;7.958;2023-02-01T01:11:35;5.30;99.90
2603;DHT22;1311;47.966;7.958;2023-02-01T01:14:03;5.30;99.90
2603;DHT22;1311;47.966;7.958;2023-02-01T01:16:31;5.30;99.90
2603;DHT22;1311;47.966;7.958;2023-02-01T01:18:59;5.20;99.90
2603;DHT22;1311;47.966;7.958;2023-02-01T01:21:26;5.30;99.90
2603;DHT22;1311;47.966;7.958;2023-02-01T01:23:53;5.30;99.90
2603;DHT22;1311;47.966;7.958;2023-02-01T01:26:21;5.30;99.90
2603;DHT22;1311;47.966;7.958;2023-02-01T01:28:50;5.30;99.90
2603;DHT22;1311;47.966;7.958;2023-02-01T01:31:19;5.20;99.90
2603;DHT22;1311;47.966;7.958;2023-02-01T01:33:48;5.20;99.90
2603;DHT22;1311;47.966;7.958;2023-02-01T01:36:15;5.20;99.90
2603;DHT22;1311;47.966;7.958;2023-02-01T01:38:42;5.20;99.90
2603;DHT22;1311;47.966;7.958;2023-02-01T01:41:14;5.20;99.90
2603;DHT22;1311;47.966;7.958;2023-02-01T01:43:50;5.20;99.90
2603;DHT22;1311;47.966;7.958;2023-02-01T01:46:19;5.20;99.90
2603;DHT22;1311;47.966;7.958;2023-02-01T01:48:47;5.20;99.90
2603;DHT22;1311;47.966;7.958;2023-02-01T01:51:18;5.20;99.90
2603;DHT22;1311;47.966;7.958;2023-02-01T01:53:52;5.20;99.90
2603;DHT22;1311;47.966;7.958;2023-02-01T01:56:20;5.20;99.90
2603;DHT22;1311;47.966;7.958;2023-02-01T01:58:46;5.20;99.90
2603;DHT22;1311;47.966;7.958;2023-02-01T02:01:15;5.20;99.90
2603;DHT22;1311;47.966;7.958;2023-02-01T02:03:44;5.20;99.90
2603;DHT22;1311;47.966;7.958;2023-02-01T02:06:17;5.20;99.90
2603;DHT22;1311;47.966;7.958;2023-02-01T02:08:46;5.20;99.90
2603;DHT22;1311;47.966;7.958;2023-02-01T02:11:16;5.10;99.90
2603;DHT22;1311;47.966;7.958;2023-02-01T02:13:47;5.10;99.90
2603;DHT22;1311;47.966;7.958;2023-02-01T02:16:24;5.10;99.90
2603;DHT22;1311;47.966;7.958;2023-02-01T02:19:00;5.10;99.90
2603;DHT22;1311;47.966;7.958;2023-02-01T02:21:46;5.10;99.90
2603;DHT22;1311;47.966;7.958;2023-02-01T02:24:39;5.10;99.90
2603;DHT22;1311;47.966;7.958;2023-02-01T02:27:17;5.10;99.90
2603;DHT22;1311;47.966;7.958;2023-02-01T02:30:36;5.10;99.90
2603;DHT22;1311;47.966;7.958;2023-02-01T02:33:46;5.10;99.90
2603;DHT22;1311;47.966;7.958;2023-02-01T02:36:19;5.10;99.90
2603;DHT22;1311;47.966;7.958;2023-02-01T02:38:55;5.10;99.90
2603;DHT22;1311;47.966;7.958;2023-02-01T02:41:32;5.10;99.90
2603;DHT22;1311;47.966;7.958;2023-02-01T02:44:23;5.10;99.90
2603;DHT22;1311;47.966;7.958;2023-02-01T02:47:18;5.10;99.90
2603;DHT22;1311;47.966;7.958;2023-02-01T02:49:54;5.10;99.90
2603;DHT22;1311;47.966;7.958;2023-02-01T02:52:45;5.10;99.90
2603;DHT22;1311;47.966;7.958;2023-02-01T02:55:33;5.10;99.90
2603;DHT22;1311;47.966;7.958;2023-02-01T02:58:03;5.10;99.90
2603;DHT22;1311;47.966;7.958;2023-02-01T03:00:48;5.10;99.90
2603;DHT22;1311;47.966;7.958;2023-02-01T03:03:36;5.10;99.90
2603;DHT22;1311;47.966;7.958;2023-02-01T03:06:23;5.10;99.90
2603;DHT22;1311;47.966;7.958;2023-02-01T03:08:50;5.00;99.90
2603;DHT22;1311;47.966;7.958;2023-02-01T03:11:20;5.10;99.90
2603;DHT22;1311;47.966;7.958;2023-02-01T03:13:51;5.10;99.90
2603;DHT22;1311;47.966;7.958;2023-02-01T03:16:21;5.10;99.90
2603;DHT22;1311;47.966;7.958;2023-02-01T03:18:55;5.10;99.90
2603;DHT22;1311;47.966;7.958;2023-02-01T03:21:28;5.10;99.90
2603;DHT22;1311;47.966;7.958;2023-02-01T03:23:59;5.10;99.90
2603;DHT22;1311;47.966;7.958;2023-02-01T03:26:30;5.10;99.90
2603;DHT22;1311;47.966;7.958;2023-02-01T03:29:04;5.10;99.90
2603;DHT22;1311;47.966;7.958;2023-02-01T03:31:33;5.10;99.90
2603;DHT22;1311;47.966;7.958;2023-02-01T03:34:00;5.10;99.90
2603;DHT22;1311;47.966;7.958;2023-02-01T03:36:32;5.10;99.90
2603;DHT22;1311;47.966;7.958;2023-02-01T03:39:05;5.10;99.90
2603;DHT22;1311;47.966;7.958;2023-02-01T03:41:37;5.10;99.90
2603;DHT22;1311;47.966;7.958;2023-02-01T03:44:10;5.10;99.90
2603;DHT22;1311;47.966;7.958;2023-02-01T03:46:41;5.10;99.90
2603;DHT22;1311;47.966;7.958;2023-02-01T03:49:11;5.10;99.90
2603;DHT22;1311;47.966;7.958;2023-02-01T03:51:41;5.10;99.90
2603;DHT22;1311;47.966;7.958;2023-02-01T03:54:11;5.10;99.90
2603;DHT22;1311;47.966;7.958;2023-02-01T03:56:42;5.00;99.90
2603;DHT22;1311;47.966;7.958;2023-02-01T03:59:10;5.00;99.90
2603;DHT22;1311;47.966;7.958;2023-02-01T04:01:37;5.00;99.90
2603;DHT22;1311;47.966;7.958;2023-02-01T04:04:05;5.00;99.90
2603;DHT22;1311;47.966;7.958;2023-02-01T04:06:31;5.00;99.90
2603;DHT22;1311;47.966;7.958;2023-02-01T04:08:59;5.00;99.90
2603;DHT22;1311;47.966;7.958;2023-02-01T04:11:26;4.90;99.90
2603;DHT22;1311;47.966;7.958;2023-02-01T04:13:54;5.00;99.90
2603;DHT22;1311;47.966;7.958;2023-02-01T04:16:21;4.90;99.90
2603;DHT22;1311;47.966;7.958;2023-02-01T04:18:47;5.00;99.90
2603;DHT22;1311;47.966;7.958;2023-02-01T04:21:14;4.90;99.90
2603;DHT22;1311;47.966;7.958;2023-02-01T04:23:41;5.00;99.90
2603;DHT22;1311;47.966;7.958;2023-02-01T04:26:09;4.90;99.90
2603;DHT22;1311;47.966;7.958;2023-02-01T04:28:36;4.90;99.90
2603;DHT22;1311;47.966;7.958;2023-02-01T04:31:03;4.90;99.90
2603;DHT22;1311;47.966;7.958;2023-02-01T04:33:29;4.80;99.90
2603;DHT22;1311;47.966;7.958;2023-02-01T04:35:57;4.90;99.90
2603;DHT22;1311;47.966;7.958;2023-02-01T04:38:24;4.90;99.90
2603;DHT22;1311;47.966;7.958;2023-02-01T04:40:50;4.90;99.90
2603;DHT22;1311;47.966;7.958;2023-02-01T04:43:18;4.90;99.90
2603;DHT22;1311;47.966;7.958;2023-02-01T04:45:48;4.90;99.90
2603;DHT22;1311;47.966;7.958;2023-02-01T04:48:15;4.80;99.90
2603;DHT22;1311;47.966;7.958;2023-02-01T04:50:43;4.80;99.90
2603;DHT22;1311;47.966;7.958;2023-02-01T04:53:13;4.80;99.90
2603;DHT22;1311;47.966;7.958;2023-02-01T04:55:39;4.80;99.90
2603;DHT22;1311;47.966;7.958;2023-02-01T04:58:06;4.80;99.90
2603;DHT22;1311;47.966;7.958;2023-02-01T05:00:34;4.70;99.90
2603;DHT22;1311;47.966;7.958;2023-02-01T05:03:01;4.50;99.90
2603;DHT22;1311;47.966;7.958;2023-02-01T05:05:28;4.50;99.90
2603;DHT22;1311;47.966;7.958;2023-02-01T05:07:55;4.60;99.90
2603;DHT22;1311;47.966;7.958;2023-02-01T05:10:22;4.60;99.90
2603;DHT22;1311;47.966;7.958;2023-02-01T05:12:48;4.50;99.90
2603;DHT22;1311;47.966;7.958;2023-02-01T05:15:34;4.50;99.90
2603;DHT22;1311;47.966;7.958;2023-02-01T05:18:00;4.50;99.90
2603;DHT22;1311;47.966;7.958;2023-02-01T05:20:29;4.60;99.90
2603;DHT22;1311;47.966;7.958;2023-02-01T05:22:56;4.60;99.90
2603;DHT22;1311;47.966;7.958;2023-02-01T05:25:22;4.60;99.90
2603;DHT22;1311;47.966;7.958;2023-02-01T05:27:49;4.70;99.90
2603;DHT22;1311;47.966;7.958;2023-02-01T05:30:16;4.70;99.90
2603;DHT22;1311;47.966;7.958;2023-02-01T05:32:44;4.70;99.90
2603;DHT22;1311;47.966;7.958;2023-02-01T05:35:11;4.80;99.90
2603;DHT22;1311;47.966;7.958;2023-02-01T05:37:38;4.80;99.90
2603;DHT22;1311;47.966;7.958;2023-02-01T05:40:06;4.80;99.90
2603;DHT22;1311;47.966;7.958;2023-02-01T05:42:33;4.80;99.90
2603;DHT22;1311;47.966;7.958;2023-02-01T05:44:59;4.80;99.90
2603;DHT22;1311;47.966;7.958;2023-02-01T05:47:26;4.80;99.90
2603;DHT22;1311;47.966;7.958;2023-02-01T05:49:55;4.80;99.90
2603;DHT22;1311;47.966;7.958;2023-02-01T05:52:22;4.80;99.90
2603;DHT22;1311;47.966;7.958;2023-02-01T05:54:49;4.80;99.90
2603;DHT22;1311;47.966;7.958;2023-02-01T05:57:16;4.80;99.90
2603;DHT22;1311;47.966;7.958;2023-02-01T05:59:42;4.80;99.90
2603;DHT22;1311;47.966;7.958;2023-02-01T06:02:11;4.80;99.90
2603;DHT22;1311;47.966;7.958;2023-02-01T06:04:38;4.80;99.90
2603;DHT22;1311;47.966;7.958;2023-02-01T06:07:06;4.80;99.90
2603;DHT22;1311;47.966;7.958;2023-02-01T06:09:34;4.70;99.90
2603;DHT22;1311;47.966;7.958;2023-02-01T06:12:01;4.80;99.90
2603;DHT22;1311;47.966;7.958;2023-02-01T06:14:28;4.80;99.90
2603;DHT22;1311;47.966;7.958;2023-02-01T06:16:55;4.70;99.90
2603;DHT22;1311;47.966;7.958;2023-02-01T06:19:22;4.80;99.90
2603;DHT22;1311;47.966;7.958;2023-02-01T06:21:48;4.80;99.90
2603;DHT22;1311;47.966;7.958;2023-02-01T06:24:17;4.70;99.90
2603;DHT22;1311;47.966;7.958;2023-02-01T06:26:43;4.70;99.90
2603;DHT22;1311;47.966;7.958;2023-02-01T06:29:10;4.70;99.90
2603;DHT22;1311;47.966;7.958;2023-02-01T06:31:37;4.80;99.90
2603;DHT22;1311;47.966;7.958;2023-02-01T06:34:05;4.70;99.90
2603;DHT22;1311;47.966;7.958;2023-02-01T06:36:32;4.70;99.90
2603;DHT22;1311;47.966;7.958;2023-02-01T06:38:59;4.70;99.90
2603;DHT22;1311;47.966;7.958;2023-02-01T06:41:27;4.70;99.90
2603;DHT22;1311;47.966;7.958;2023-02-01T06:43:54;4.80;99.90
2603;DHT22;1311;47.966;7.958;2023-02-01T06:46:20;4.70;99.90
2603;DHT22;1311;47.966;7.958;2023-02-01T06:48:47;4.80;99.90
2603;DHT22;1311;47.966;7.958;2023-02-01T06:51:20;4.70;99.90
2603;DHT22;1311;47.966;7.958;2023-02-01T06:53:47;4.80;99.90
2603;DHT22;1311;47.966;7.958;2023-02-01T06:56:14;4.80;99.90
2603;DHT22;1311;47.966;7.958;2023-02-01T06:58:42;4.80;99.90
2603;DHT22;1311;47.966;7.958;2023-02-01T07:01:10;4.80;99.90
2603;DHT22;1311;47.966;7.958;2023-02-01T07:03:38;4.90;99.90
2603;DHT22;1311;47.966;7.958;2023-02-01T07:06:05;4.90;99.90
2603;DHT22;1311;47.966;7.958;2023-02-01T07:08:35;4.90;99.90
2603;DHT22;1311;47.966;7.958;2023-02-01T07:11:03;5.00;99.90
2603;DHT22;1311;47.966;7.958;2023-02-01T07:13:30;5.00;99.90
2603;DHT22;1311;47.966;7.958;2023-02-01T07:16:03;5.10;99.90
2603;DHT22;1311;47.966;7.958;2023-02-01T07:18:30;5.20;99.90
2603;DHT22;1311;47.966;7.958;2023-02-01T07:20:58;5.20;99.90
2603;DHT22;1311;47.966;7.958;2023-02-01T07:23:25;5.20;99.90
2603;DHT22;1311;47.966;7.958;2023-02-01T07:25:54;5.20;99.90
2603;DHT22;1311;47.966;7.958;2023-02-01T07:28:20;5.30;99.90
2603;DHT22;1311;47.966;7.958;2023-02-01T07:30:47;5.30;99.90
2603;DHT22;1311;47.966;7.958;2023-02-01T07:33:18;5.40;99.90
2603;DHT22;1311;47.966;7.958;2023-02-01T07:35:45;5.40;99.90
2603;DHT22;1311;47.966;7.958;2023-02-01T07:38:12;5.50;99.90
2603;DHT22;1311;47.966;7.958;2023-02-01T07:40:39;5.40;99.90
2603;DHT22;1311;47.966;7.958;2023-02-01T07:43:06;5.50;99.90
2603;DHT22;1311;47.966;7.958;2023-02-01T07:45:33;5.50;99.90
2603;DHT22;1311;47.966;7.958;2023-02-01T07:48:00;5.50;99.90
2603;DHT22;1311;47.966;7.958;2023-02-01T07:50:30;5.60;99.90
2603;DHT22;1311;47.966;7.958;2023-02-01T07:52:58;5.60;99.90
2603;DHT22;1311;47.966;7.958;2023-02-01T07:55:25;5.50;99.90
2603;DHT22;1311;47.966;7.958;2023-02-01T07:57:52;5.50;99.90
2603;DHT22;1311;47.966;7.958;2023-02-01T08:00:19;5.60;99.90
2603;DHT22;1311;47.966;7.958;2023-02-01T08:03:04;5.50;99.90
2603;DHT22;1311;47.966;7.958;2023-02-01T08:05:32;5.60;99.90
2603;DHT22;1311;47.966;7.958;2023-02-01T08:07:59;5.60;99.90
2603;DHT22;1311;47.966;7.958;2023-02-01T08:10:26;5.70;99.90
2603;DHT22;1311;47.966;7.958;2023-02-01T08:12:57;5.70;99.90
2603;DHT22;1311;47.966;7.958;2023-02-01T08:15:25;5.80;99.90
2603;DHT22;1311;47.966;7.958;2023-02-01T08:17:52;5.90;99.90
2603;DHT22;1311;47.966;7.958;2023-02-01T08:20:20;6.10;99.90
2603;DHT22;1311;47.966;7.958;2023-02-01T08:22:49;6.20;99.90
2603;DHT22;1311;47.966;7.958;2023-02-01T08:25:16;6.10;99.90
2603;DHT22;1311;47.966;7.958;2023-02-01T08:27:43;6.00;99.90
2603;DHT22;1311;47.966;7.958;2023-02-01T08:30:11;6.00;99.90
2603;DHT22;1311;47.966;7.958;2023-02-01T08:32:38;6.00;99.90
2603;DHT22;1311;47.966;7.958;2023-02-01T08:35:05;6.00;99.90
2603;DHT22;1311;47.966;7.958;2023-02-01T08:37:32;6.10;99.90
2603;DHT22;1311;47.966;7.958;2023-02-01T08:40:00;6.10;99.90
2603;DHT22;1311;47.966;7.958;2023-02-01T08:42:26;6.10;99.90
2603;DHT22;1311;47.966;7.958;2023-02-01T08:45:11;6.10;99.90
2603;DHT22;1311;47.966;7.958;2023-02-01T08:47:38;6.10;99.90
2603;DHT22;1311;47.966;7.958;2023-02-01T08:50:05;6.10;99.90
2603;DHT22;1311;47.966;7.958;2023-02-01T08:52:32;6.10;99.90
2603;DHT22;1311;47.966;7.958;2023-02-01T08:55:00;6.20;99.90
2603;DHT22;1311;47.966;7.958;2023-02-01T08:57:27;6.10;99.90
2603;DHT22;1311;47.966;7.958;2023-02-01T08:59:54;6.10;99.90
2603;DHT22;1311;47.966;7.958;2023-02-01T09:02:20;6.10;99.90
2603;DHT22;1311;47.966;7.958;2023-02-01T09:04:47;6.00;99.90
2603;DHT22;1311;47.966;7.958;2023-02-01T09:07:14;6.00;99.90
2603;DHT22;1311;47.966;7.958;2023-02-01T09:09:42;6.00;99.90
2603;DHT22;1311;47.966;7.958;2023-02-01T09:12:10;6.00;99.90
2603;DHT22;1311;47.966;7.958;2023-02-01T09:14:37;6.00;99.90
2603;DHT22;1311;47.966;7.958;2023-02-01T09:17:04;6.00;99.90
2603;DHT22;1311;47.966;7.958;2023-02-01T09:19:31;6.00;99.90
2603;DHT22;1311;47.966;7.958;2023-02-01T09:21:58;6.10;99.90
2603;DHT22;1311;47.966;7.958;2023-02-01T09:24:25;6.20;99.90
2603;DHT22;1311;47.966;7.958;2023-02-01T09:26:51;6.30;99.90
2603;DHT22;1311;47.966;7.958;2023-02-01T09:29:20;6.40;99.90
2603;DHT22;1311;47.966;7.958;2023-02-01T09:31:46;6.30;99.90
2603;DHT22;1311;47.966;7.958;2023-02-01T09:34:13;6.40;99.90
2603;DHT22;1311;47.966;7.958;2023-02-01T09:36:40;6.40;99.90
2603;DHT22;1311;47.966;7.958;2023-02-01T09:39:07;6.40;99.90
2603;DHT22;1311;47.966;7.958;2023-02-01T09:41:42;6.50;99.90
2603;DHT22;1311;47.966;7.958;2023-02-01T09:44:22;6.60;99.90
2603;DHT22;1311;47.966;7.958;2023-02-01T09:46:55;6.60;99.90
2603;DHT22;1311;47.966;7.958;2023-02-01T09:49:26;6.50;99.90
2603;DHT22;1311;47.966;7.958;2023-02-01T09:51:54;6.70;99.90
2603;DHT22;1311;47.966;7.958;2023-02-01T09:54:25;6.90;99.90
2603;DHT22;1311;47.966;7.958;2023-02-01T09:56:54;6.80;99.90
2603;DHT22;1311;47.966;7.958;2023-02-01T09:59:30;6.90;99.90
2603;DHT22;1311;47.966;7.958;2023-02-01T10:01:58;7.00;99.90
2603;DHT22;1311;47.966;7.958;2023-02-01T10:04:26;6.90;99.90
2603;DHT22;1311;47.966;7.958;2023-02-01T10:07:02;6.80;99.90
2603;DHT22;1311;47.966;7.958;2023-02-01T10:09:48;7.00;99.90
2603;DHT22;1311;47.966;7.958;2023-02-01T10:15:27;7.40;99.90
2603;DHT22;1311;47.966;7.958;2023-02-01T10:18:15;7.50;99.90
2603;DHT22;1311;47.966;7.958;2023-02-01T10:20:52;7.40;99.90
2603;DHT22;1311;47.966;7.958;2023-02-01T10:23:32;7.30;99.90
2603;DHT22;1311;47.966;7.958;2023-02-01T10:26:04;7.20;99.90
2603;DHT22;1311;47.966;7.958;2023-02-01T10:28:36;7.20;99.90
2603;DHT22;1311;47.966;7.958;2023-02-01T10:31:08;7.20;99.90
2603;DHT22;1311;47.966;7.958;2023-02-01T10:33:39;7.10;99.90
2603;DHT22;1311;47.966;7.958;2023-02-01T10:36:14;7.20;99.90
2603;DHT22;1311;47.966;7.958;2023-02-01T10:38:43;7.20;99.90
2603;DHT22;1311;47.966;7.958;2023-02-01T10:41:13;7.10;99.90
2603;DHT22;1311;47.966;7.958;2023-02-01T10:43:41;7.10;99.90
2603;DHT22;1311;47.966;7.958;2023-02-01T10:46:10;7.10;99.90
2603;DHT22;1311;47.966;7.958;2023-02-01T10:48:37;7.10;99.90
2603;DHT22;1311;47.966;7.958;2023-02-01T10:51:10;7.00;99.90
2603;DHT22;1311;47.966;7.958;2023-02-01T10:53:44;7.20;99.90
2603;DHT22;1311;47.966;7.958;2023-02-01T10:56:14;7.30;99.90
2603;DHT22;1311;47.966;7.958;2023-02-01T10:58:48;7.10;99.90
2603;DHT22;1311;47.966;7.958;2023-02-01T11:01:19;7.20;99.90
2603;DHT22;1311;47.966;7.958;2023-02-01T11:03:52;7.10;99.90
2603;DHT22;1311;47.966;7.958;2023-02-01T11:06:26;7.10;99.90
2603;DHT22;1311;47.966;7.958;2023-02-01T11:08:54;7.30;99.90
2603;DHT22;1311;47.966;7.958;2023-02-01T11:11:22;7.50;99.90
2603;DHT22;1311;47.966;7.958;2023-02-01T11:13:54;7.60;99.90
2603;DHT22;1311;47.966;7.958;2023-02-01T11:16:30;7.60;99.90
2603;DHT22;1311;47.966;7.958;2023-02-01T11:18:59;7.50;99.90
2603;DHT22;1311;47.966;7.958;2023-02-01T11:21:26;7.30;99.90
2603;DHT22;1311;47.966;7.958;2023-02-01T11:23:53;7.40;99.90
2603;DHT22;1311;47.966;7.958;2023-02-01T11:26:22;7.40;99.90
2603;DHT22;1311;47.966;7.958;2023-02-01T11:28:57;7.50;99.90
2603;DHT22;1311;47.966;7.958;2023-02-01T11:31:26;7.50;99.90
2603;DHT22;1311;47.966;7.958;2023-02-01T11:33:59;7.30;99.90
2603;DHT22;1311;47.966;7.958;2023-02-01T11:36:27;7.20;99.90
2603;DHT22;1311;47.966;7.958;2023-02-01T11:39:09;7.20;99.90
2603;DHT22;1311;47.966;7.958;2023-02-01T11:41:41;7.40;99.90
2603;DHT22;1311;47.966;7.958;2023-02-01T11:44:20;7.10;99.90
2603;DHT22;1311;47.966;7.958;2023-02-01T11:46:48;7.30;99.90
2603;DHT22;1311;47.966;7.958;2023-02-01T11:49:21;7.40;99.90
2603;DHT22;1311;47.966;7.958;2023-02-01T11:52:01;7.60;99.90
2603;DHT22;1311;47.966;7.958;2023-02-01T11:54:40;7.40;99.90
2603;DHT22;1311;47.966;7.958;2023-02-01T11:57:24;7.40;99.90
2603;DHT22;1311;47.966;7.958;2023-02-01T12:00:02;7.70;99.90
2603;DHT22;1311;47.966;7.958;2023-02-01T12:05:28;7.90;99.90
2603;DHT22;1311;47.966;7.958;2023-02-01T12:11:32;8.00;99.90
2603;DHT22;1311;47.966;7.958;2023-02-01T12:14:10;8.10;99.90
2603;DHT22;1311;47.966;7.958;2023-02-01T12:16:51;8.10;99.90
2603;DHT22;1311;47.966;7.958;2023-02-01T12:19:32;7.90;99.90
2603;DHT22;1311;47.966;7.958;2023-02-01T12:22:12;7.50;99.90
2603;DHT22;1311;47.966;7.958;2023-02-01T12:24:56;7.70;99.90
2603;DHT22;1311;47.966;7.958;2023-02-01T12:27:46;7.50;99.90
2603;DHT22;1311;47.966;7.958;2023-02-01T12:30:33;7.60;99.90
2603;DHT22;1311;47.966;7.958;2023-02-01T12:33:09;7.70;99.90
2603;DHT22;1311;47.966;7.958;2023-02-01T12:35:49;7.90;99.90
2603;DHT22;1311;47.966;7.958;2023-02-01T12:38:40;8.00;99.90
2603;DHT22;1311;47.966;7.958;2023-02-01T12:41:19;8.00;99.90
2603;DHT22;1311;47.966;7.958;2023-02-01T12:43:52;8.00;99.90
2603;DHT22;1311;47.966;7.958;2023-02-01T12:46:23;7.80;99.90
2603;DHT22;1311;47.966;7.958;2023-02-01T12:48:56;7.70;99.90
2603;DHT22;1311;47.966;7.958;2023-02-01T12:51:28;7.60;99.90
2603;DHT22;1311;47.966;7.958;2023-02-01T12:54:01;7.60;99.90
2603;DHT22;1311;47.966;7.958;2023-02-01T12:56:32;7.50;99.90
2603;DHT22;1311;47.966;7.958;2023-02-01T12:59:03;7.60;99.90
2603;DHT22;1311;47.966;7.958;2023-02-01T13:01:35;7.50;99.90
2603;DHT22;1311;47.966;7.958;2023-02-01T13:04:07;7.40;99.90
2603;DHT22;1311;47.966;7.958;2023-02-01T13:06:41;7.20;99.90
2603;DHT22;1311;47.966;7.958;2023-02-01T13:09:18;7.10;99.90
2603;DHT22;1311;47.966;7.958;2023-02-01T13:11:49;7.10;99.90
2603;DHT22;1311;47.966;7.958;2023-02-01T13:14:25;7.00;99.90
2603;DHT22;1311;47.966;7.958;2023-02-01T13:16:59;6.90;99.90
2603;DHT22;1311;47.966;7.958;2023-02-01T13:19:30;6.80;99.90
2603;DHT22;1311;47.966;7.958;2023-02-01T13:22:05;6.80;99.90
2603;DHT22;1311;47.966;7.958;2023-02-01T13:24:38;6.70;99.90
2603;DHT22;1311;47.966;7.958;2023-02-01T13:27:10;6.70;99.90
2603;DHT22;1311;47.966;7.958;2023-02-01T13:29:43;6.70;99.90
2603;DHT22;1311;47.966;7.958;2023-02-01T13:32:35;6.70;99.90
2603;DHT22;1311;47.966;7.958;2023-02-01T13:35:21;6.60;99.90
2603;DHT22;1311;47.966;7.958;2023-02-01T13:38:28;6.60;99.90
2603;DHT22;1311;47.966;7.958;2023-02-01T13:41:07;6.60;99.90
2603;DHT22;1311;47.966;7.958;2023-02-01T13:43:38;6.50;99.90
2603;DHT22;1311;47.966;7.958;2023-02-01T13:46:09;6.50;99.90
2603;DHT22;1311;47.966;7.958;2023-02-01T13:48:41;6.40;99.90
2603;DHT22;1311;47.966;7.958;2023-02-01T13:51:13;6.40;99.90
2603;DHT22;1311;47.966;7.958;2023-02-01T13:53:48;6.40;99.90
2603;DHT22;1311;47.966;7.958;2023-02-01T13:56:16;6.30;99.90
2603;DHT22;1311;47.966;7.958;2023-02-01T13:58:45;6.30;99.90
2603;DHT22;1311;47.966;7.958;2023-02-01T14:01:42;6.20;99.90
2603;DHT22;1311;47.966;7.958;2023-02-01T14:07:20;6.10;99.90
2603;DHT22;1311;47.966;7.958;2023-02-01T14:09:49;6.20;99.90
2603;DHT22;1311;47.966;7.958;2023-02-01T14:12:47;6.20;99.90
2603;DHT22;1311;47.966;7.958;2023-02-01T14:15:24;6.20;99.90
2603;DHT22;1311;47.966;7.958;2023-02-01T14:17:51;6.20;99.90
2603;DHT22;1311;47.966;7.958;2023-02-01T14:20:43;6.20;99.90
2603;DHT22;1311;47.966;7.958;2023-02-01T14:23:37;6.10;99.90
2603;DHT22;1311;47.966;7.958;2023-02-01T14:26:10;6.10;99.90
2603;DHT22;1311;47.966;7.958;2023-02-01T14:28:41;6.10;99.90
2603;DHT22;1311;47.966;7.958;2023-02-01T14:31:25;6.00;99.90
2603;DHT22;1311;47.966;7.958;2023-02-01T14:33:58;5.90;99.90
2603;DHT22;1311;47.966;7.958;2023-02-01T14:36:25;5.90;99.90
2603;DHT22;1311;47.966;7.958;2023-02-01T14:38:53;5.80;99.90
2603;DHT22;1311;47.966;7.958;2023-02-01T14:41:31;5.80;99.90
2603;DHT22;1311;47.966;7.958;2023-02-01T14:44:23;5.90;99.90
2603;DHT22;1311;47.966;7.958;2023-02-01T14:47:30;5.80;99.90
2603;DHT22;1311;47.966;7.958;2023-02-01T14:50:31;5.80;99.90
2603;DHT22;1311;47.966;7.958;2023-02-01T14:53:20;5.80;99.90
2603;DHT22;1311;47.966;7.958;2023-02-01T14:55:51;5.70;99.90
2603;DHT22;1311;47.966;7.958;2023-02-01T14:58:32;5.70;99.90
2603;DHT22;1311;47.966;7.958;2023-02-01T15:01:16;5.70;99.90
2603;DHT22;1311;47.966;7.958;2023-02-01T15:03:49;5.70;99.90
2603;DHT22;1311;47.966;7.958;2023-02-01T15:06:36;5.70;99.90
2603;DHT22;1311;47.966;7.958;2023-02-01T15:09:12;5.70;99.90
2603;DHT22;1311;47.966;7.958;2023-02-01T15:12:01;5.70;99.90
2603;DHT22;1311;47.966;7.958;2023-02-01T15:14:32;5.70;99.90
2603;DHT22;1311;47.966;7.958;2023-02-01T15:16:58;5.70;99.90
2603;DHT22;1311;47.966;7.958;2023-02-01T15:19:27;5.70;99.90
2603;DHT22;1311;47.966;7.958;2023-02-01T15:21:56;5.70;99.90
2603;DHT22;1311;47.966;7.958;2023-02-01T15:24:24;5.60;99.90
2603;DHT22;1311;47.966;7.958;2023-02-01T15:26:53;5.60;99.90
2603;DHT22;1311;47.966;7.958;2023-02-01T15:29:21;5.60;99.90
2603;DHT22;1311;47.966;7.958;2023-02-01T15:31:52;5.60;99.90
2603;DHT22;1311;47.966;7.958;2023-02-01T15:34:20;5.60;99.90
2603;DHT22;1311;47.966;7.958;2023-02-01T15:36:48;5.60;99.90
2603;DHT22;1311;47.966;7.958;2023-02-01T15:39:20;5.60;99.90
2603;DHT22;1311;47.966;7.958;2023-02-01T15:41:53;5.60;99.90
2603;DHT22;1311;47.966;7.958;2023-02-01T15:44:30;5.60;99.90
2603;DHT22;1311;47.966;7.958;2023-02-01T15:47:04;5.60;99.90
2603;DHT22;1311;47.966;7.958;2023-02-01T15:49:36;5.60;99.90
2603;DHT22;1311;47.966;7.958;2023-02-01T15:52:08;5.60;99.90
2603;DHT22;1311;47.966;7.958;2023-02-01T15:54:43;5.60;99.90
2603;DHT22;1311;47.966;7.958;2023-02-01T15:57:20;5.60;99.90
2603;DHT22;1311;47.966;7.958;2023-02-01T15:59:48;5.60;99.90
2603;DHT22;1311;47.966;7.958;2023-02-01T16:02:29;5.60;99.90
2603;DHT22;1311;47.966;7.958;2023-02-01T16:04:59;5.60;99.90
2603;DHT22;1311;47.966;7.958;2023-02-01T16:07:29;5.60;99.90
2603;DHT22;1311;47.966;7.958;2023-02-01T16:09:59;5.60;99.90
2603;DHT22;1311;47.966;7.958;2023-02-01T16:12:34;5.60;99.90
2603;DHT22;1311;47.966;7.958;2023-02-01T16:15:01;5.60;99.90
2603;DHT22;1311;47.966;7.958;2023-02-01T16:17:32;5.60;99.90
2603;DHT22;1311;47.966;7.958;2023-02-01T16:19:59;5.60;99.90
2603;DHT22;1311;47.966;7.958;2023-02-01T16:22:29;5.60;99.90
2603;DHT22;1311;47.966;7.958;2023-02-01T16:24:56;5.50;99.90
2603;DHT22;1311;47.966;7.958;2023-02-01T16:27:22;5.50;99.90
2603;DHT22;1311;47.966;7.958;2023-02-01T16:29:50;5.50;99.90
2603;DHT22;1311;47.966;7.958;2023-02-01T16:32:19;5.50;99.90
2603;DHT22;1311;47.966;7.958;2023-02-01T16:34:48;5.50;99.90
2603;DHT22;1311;47.966;7.958;2023-02-01T16:37:18;5.50;99.90
2603;DHT22;1311;47.966;7.958;2023-02-01T16:39:46;5.50;99.90
2603;DHT22;1311;47.966;7.958;2023-02-01T16:42:17;5.50;99.90
2603;DHT22;1311;47.966;7.958;2023-02-01T16:44:44;5.40;99.90
2603;DHT22;1311;47.966;7.958;2023-02-01T16:47:13;5.40;99.90
2603;DHT22;1311;47.966;7.958;2023-02-01T16:49:41;5.40;99.90
2603;DHT22;1311;47.966;7.958;2023-02-01T16:52:18;5.40;99.90
2603;DHT22;1311;47.966;7.958;2023-02-01T16:54:48;5.40;99.90
2603;DHT22;1311;47.966;7.958;2023-02-01T16:57:16;5.40;99.90